Aysenur — ERJR — position and weather

sailwx.info

Track history (hours):
 
Tides and Currents Weather Stations Pressure Air Temp Water Temp Dewpoint Dewpoint Depression Visibility Wind Speed Wind Dir Waves Ship Positions

Aysenur

Last reported at 2014-Nov-11 11:30 UTC. Time now 2014-Nov-21 19:14 UTC.
Position N 40°56' E 028°53'.
Warning: this ship's position is 10 days out of date.

Length 101 m; draft 5.4 m.

Type: Cargo ship. MMSI: 214181018.

Date/timePositionNaut miles runAvg speedWind from/ knotsBaromVisibWave heightAir tempDewpointWater temp
2014-Nov-11 11:30N 40°56' E 028°53'7 6.9
2014-Nov-11 10:30N 41°01' E 028°60'287 7.3
2014-Nov-09 19:11N 45°39' E 030°41'14 8.0
2014-Nov-09 17:25N 45°52' E 030°46'8 8.0
2014-Nov-09 16:24N 46°00' E 030°48'7 8.1
2014-Nov-09 15:33N 46°07' E 030°51'10 8.0
2014-Nov-09 14:20N 46°17' E 030°54'6 8.0
2014-Nov-09 13:32N 46°23' E 030°55'8 8.3
2014-Nov-09 12:33N 46°31' E 030°55'16 8.2
2014-Nov-09 10:33N 46°35' E 031°19'8 8.4
2014-Nov-09 09:33N 46°35' E 031°31'8 8.5
2014-Nov-09 08:33N 46°36' E 031°43'8 8.4
2014-Nov-09 07:33N 46°38' E 031°55'7 7.5
2014-Nov-09 06:33N 46°46' E 031°54'8 8.1
2014-Nov-09 05:33N 46°53' E 031°59'4 4.0
2014-Nov-09 04:31N 46°57' E 031°60'0 0.0
2014-Nov-09 03:31N 46°57' E 031°60'0 0.0
2014-Nov-09 02:34N 46°57' E 031°60'0 0.0
2014-Nov-09 01:33N 46°57' E 031°60'0 0.0
2014-Nov-09 00:33N 46°57' E 031°60'0 0.0
2014-Nov-08 23:33N 46°57' E 031°60'0 0.0
2014-Nov-08 22:33N 46°57' E 031°60'0 0.0
2014-Nov-08 21:33N 46°57' E 031°60'0 0.0
2014-Nov-08 20:33N 46°57' E 031°60'0 0.0
2014-Nov-08 19:33N 46°57' E 031°60'0 0.0
2014-Nov-08 18:33N 46°57' E 031°60'0 0.0
2014-Nov-08 17:33N 46°57' E 031°60'0 0.0
2014-Nov-08 16:33N 46°57' E 031°60'0 0.0
2014-Nov-08 15:33N 46°57' E 031°60'0 0.0
2014-Nov-08 14:33N 46°57' E 031°60'0 0.0
2014-Nov-08 13:33N 46°57' E 031°60'0 0.0
2014-Nov-08 12:33N 46°57' E 031°60'0 0.0
2014-Nov-08 11:33N 46°57' E 031°60'0 0.0
2014-Nov-08 10:33N 46°57' E 031°60'0 0.0
2014-Nov-08 09:33N 46°57' E 031°60'0 0.0
2014-Nov-08 08:33N 46°57' E 031°60'0 0.0
2014-Nov-08 07:33N 46°57' E 031°60'0 0.0
2014-Nov-08 06:33N 46°57' E 031°60'0 0.0
2014-Nov-08 05:33N 46°57' E 031°60'0 0.0
2014-Nov-08 04:33N 46°57' E 031°60'0 0.0
2014-Nov-08 03:33N 46°57' E 031°60'0 0.0
2014-Nov-08 02:33N 46°57' E 031°60'0 0.0
2014-Nov-08 01:33N 46°57' E 031°60'0 0.0
2014-Nov-08 00:33N 46°57' E 031°60'0 0.0
2014-Nov-07 23:33N 46°57' E 031°60'0 0.0
2014-Nov-07 22:33N 46°57' E 031°60'0 0.0
2014-Nov-07 21:33N 46°57' E 031°60'0 0.0
2014-Nov-07 20:33N 46°57' E 031°60'0 0.0
2014-Nov-07 19:33N 46°57' E 031°60'0 0.0
2014-Nov-07 18:33N 46°57' E 031°60'0 0.0
2014-Nov-07 17:33N 46°57' E 031°60'0 0.0
2014-Nov-07 16:33N 46°57' E 031°60'0 0.0
2014-Nov-07 15:33N 46°57' E 031°60'0 0.0
2014-Nov-07 14:33N 46°57' E 031°60'0 0.0
2014-Nov-07 13:33N 46°57' E 031°60'0 0.0
2014-Nov-07 12:32N 46°57' E 031°60'0 0.0
2014-Nov-07 11:32N 46°57' E 031°60'0 0.0
2014-Nov-07 10:32N 46°57' E 031°60'0 0.1
2014-Nov-07 09:32N 46°57' E 031°60'0 0.0
2014-Nov-07 08:32N 46°57' E 031°60'0 0.0
2014-Nov-07 07:32N 46°57' E 031°60'0 0.0
2014-Nov-07 06:32N 46°57' E 031°60'0 0.0
2014-Nov-07 05:32N 46°57' E 031°60'0 0.0
2014-Nov-07 04:32N 46°57' E 031°60'0 0.0
2014-Nov-07 03:32N 46°57' E 031°60'0 0.0
2014-Nov-07 02:29N 46°57' E 031°60'0 0.0
2014-Nov-07 01:32N 46°57' E 031°60'0 0.0
2014-Nov-07 00:32N 46°57' E 031°60'0 0.0
2014-Nov-06 23:32N 46°57' E 031°60'0 0.0
2014-Nov-06 22:32N 46°57' E 031°60'0 0.0
2014-Nov-06 21:32N 46°57' E 031°60'0 0.0
2014-Nov-06 20:32N 46°57' E 031°60'0 0.0
2014-Nov-06 19:32N 46°57' E 031°60'0 0.0
2014-Nov-06 18:32N 46°57' E 031°60'0 0.0
2014-Nov-06 17:32N 46°57' E 031°60'0 0.0
2014-Nov-06 16:29N 46°57' E 031°60'0 0.0
2014-Nov-06 15:32N 46°57' E 031°60'0 0.0
2014-Nov-06 14:32N 46°57' E 031°60'0 0.0
2014-Nov-06 13:32N 46°57' E 031°60'0 0.0
2014-Nov-06 12:32N 46°57' E 031°60'0 0.0
2014-Nov-06 11:32N 46°57' E 031°60'0 0.0
2014-Nov-06 10:32N 46°57' E 031°60'0 0.0
2014-Nov-06 09:32N 46°57' E 031°60'0 0.0
2014-Nov-06 08:32N 46°57' E 031°60'0 0.0
2014-Nov-06 07:32N 46°57' E 031°60'0 0.0
2014-Nov-06 06:32N 46°57' E 031°60'0 0.0
2014-Nov-06 05:32N 46°57' E 031°60'0 0.0
2014-Nov-06 04:32N 46°57' E 031°60'0 0.0
2014-Nov-06 03:32N 46°57' E 031°60'0 0.0
2014-Nov-06 02:32N 46°57' E 031°60'0 0.0
2014-Nov-06 01:32N 46°57' E 031°60'0 0.0
2014-Nov-06 00:31N 46°57' E 031°60'0 0.0
2014-Nov-05 23:31N 46°57' E 031°60'0 0.0
2014-Nov-05 22:31N 46°57' E 031°60'0 0.0
2014-Nov-05 21:31N 46°57' E 031°60'0 0.0
2014-Nov-05 20:31N 46°57' E 031°60'0 0.0
2014-Nov-05 19:31N 46°57' E 031°60'0 0.0
2014-Nov-05 18:31N 46°57' E 031°60'0 0.0
2014-Nov-05 17:28N 46°57' E 031°60'0 0.0
2014-Nov-05 16:31N 46°57' E 031°60'0 0.0
2014-Nov-05 15:31N 46°57' E 031°60'0 0.0
2014-Nov-05 14:31N 46°57' E 031°60'0 0.0
2014-Nov-05 13:31N 46°57' E 031°60'0 0.0
2014-Nov-05 12:31N 46°57' E 031°60'0 0.0
2014-Nov-05 11:31N 46°57' E 031°60'0 0.0
2014-Nov-05 10:31N 46°57' E 031°60'0 0.0
2014-Nov-05 09:31N 46°57' E 031°60'0 0.0
2014-Nov-05 08:31N 46°57' E 031°60'0 0.0
2014-Nov-05 07:31N 46°57' E 031°60'0 0.0
2014-Nov-05 06:31N 46°57' E 031°60'0 0.0
2014-Nov-05 05:31N 46°57' E 031°60'0 0.0
2014-Nov-05 04:31N 46°57' E 031°60'0 0.0
2014-Nov-05 03:31N 46°57' E 031°60'0 0.0
2014-Nov-05 02:31N 46°57' E 031°60'0 0.0
2014-Nov-05 01:31N 46°57' E 031°60'0 0.0
2014-Nov-05 00:31N 46°57' E 031°60'3 3.2
2014-Nov-04 23:33N 46°54' E 032°00'9 9.1
2014-Nov-04 22:33N 46°46' E 031°53'8 8.4
2014-Nov-04 21:33N 46°38' E 031°54'9 8.9
2014-Nov-04 20:33N 46°36' E 031°41'8 8.4
2014-Nov-04 19:33N 46°36' E 031°29'9 9.2
2014-Nov-04 18:33N 46°35' E 031°16'43 7.2
2014-Nov-04 12:33N 45°54' E 030°55'305 9.2
2014-Nov-03 03:28N 41°01' E 028°60'6 6.7
2014-Nov-03 02:33N 40°55' E 029°00'8 8.1
2014-Nov-03 01:33N 40°50' E 029°09'2 1.8
2014-Nov-03 00:28N 40°52' E 029°10'0 0.0
2014-Nov-02 23:22N 40°52' E 029°10'0 0.0
2014-Nov-02 22:28N 40°52' E 029°10'0 0.0
2014-Nov-02 21:28N 40°52' E 029°10'0 0.0
2014-Nov-02 20:28N 40°52' E 029°10'0 0.0
2014-Nov-02 19:16N 40°52' E 029°10'0 0.0
2014-Nov-02 18:28N 40°52' E 029°10'0 0.1
2014-Nov-02 17:33N 40°52' E 029°10'8 8.0
2014-Nov-02 16:33N 40°46' E 029°16'9 9.3
2014-Nov-02 15:33N 40°45' E 029°29'  
Track history (hours):
 
Tides and Currents Weather Stations Pressure Air Temp Water Temp Dewpoint Dewpoint Depression Visibility Wind Speed Wind Dir Waves Ship Positions

Aysenur

Last reported at 2014-Nov-11 11:30 UTC. Time now 2014-Nov-21 19:14 UTC.
Position N 40°56' E 028°53'.
Warning: this ship's position is 10 days out of date.

Length 101 m; draft 5.4 m.

Type: Cargo ship. MMSI: 214181018.

Date/timePositionNaut miles runAvg speedWind from/ knotsBaromVisibWave heightAir tempDewpointWater temp
2014-Nov-11 11:30N 40°56' E 028°53'7 6.9
2014-Nov-11 10:30N 41°01' E 028°60'287 7.3
2014-Nov-09 19:11N 45°39' E 030°41'14 8.0
2014-Nov-09 17:25N 45°52' E 030°46'8 8.0
2014-Nov-09 16:24N 46°00' E 030°48'7 8.1
2014-Nov-09 15:33N 46°07' E 030°51'10 8.0
2014-Nov-09 14:20N 46°17' E 030°54'6 8.0
2014-Nov-09 13:32N 46°23' E 030°55'8 8.3
2014-Nov-09 12:33N 46°31' E 030°55'16 8.2
2014-Nov-09 10:33N 46°35' E 031°19'8 8.4
2014-Nov-09 09:33N 46°35' E 031°31'8 8.5
2014-Nov-09 08:33N 46°36' E 031°43'8 8.4
2014-Nov-09 07:33N 46°38' E 031°55'7 7.5
2014-Nov-09 06:33N 46°46' E 031°54'8 8.1
2014-Nov-09 05:33N 46°53' E 031°59'4 4.0
2014-Nov-09 04:31N 46°57' E 031°60'0 0.0
2014-Nov-09 03:31N 46°57' E 031°60'0 0.0
2014-Nov-09 02:34N 46°57' E 031°60'0 0.0
2014-Nov-09 01:33N 46°57' E 031°60'0 0.0
2014-Nov-09 00:33N 46°57' E 031°60'0 0.0
2014-Nov-08 23:33N 46°57' E 031°60'0 0.0
2014-Nov-08 22:33N 46°57' E 031°60'0 0.0
2014-Nov-08 21:33N 46°57' E 031°60'0 0.0
2014-Nov-08 20:33N 46°57' E 031°60'0 0.0
2014-Nov-08 19:33N 46°57' E 031°60'0 0.0
2014-Nov-08 18:33N 46°57' E 031°60'0 0.0
2014-Nov-08 17:33N 46°57' E 031°60'0 0.0
2014-Nov-08 16:33N 46°57' E 031°60'0 0.0
2014-Nov-08 15:33N 46°57' E 031°60'0 0.0
2014-Nov-08 14:33N 46°57' E 031°60'0 0.0
2014-Nov-08 13:33N 46°57' E 031°60'0 0.0
2014-Nov-08 12:33N 46°57' E 031°60'0 0.0
2014-Nov-08 11:33N 46°57' E 031°60'0 0.0
2014-Nov-08 10:33N 46°57' E 031°60'0 0.0
2014-Nov-08 09:33N 46°57' E 031°60'0 0.0
2014-Nov-08 08:33N 46°57' E 031°60'0 0.0
2014-Nov-08 07:33N 46°57' E 031°60'0 0.0
2014-Nov-08 06:33N 46°57' E 031°60'0 0.0
2014-Nov-08 05:33N 46°57' E 031°60'0 0.0
2014-Nov-08 04:33N 46°57' E 031°60'0 0.0
2014-Nov-08 03:33N 46°57' E 031°60'0 0.0
2014-Nov-08 02:33N 46°57' E 031°60'0 0.0
2014-Nov-08 01:33N 46°57' E 031°60'0 0.0
2014-Nov-08 00:33N 46°57' E 031°60'0 0.0
2014-Nov-07 23:33N 46°57' E 031°60'0 0.0
2014-Nov-07 22:33N 46°57' E 031°60'0 0.0
2014-Nov-07 21:33N 46°57' E 031°60'0 0.0
2014-Nov-07 20:33N 46°57' E 031°60'0 0.0
2014-Nov-07 19:33N 46°57' E 031°60'0 0.0
2014-Nov-07 18:33N 46°57' E 031°60'0 0.0
2014-Nov-07 17:33N 46°57' E 031°60'0 0.0
2014-Nov-07 16:33N 46°57' E 031°60'0 0.0
2014-Nov-07 15:33N 46°57' E 031°60'0 0.0
2014-Nov-07 14:33N 46°57' E 031°60'0 0.0
2014-Nov-07 13:33N 46°57' E 031°60'0 0.0
2014-Nov-07 12:32N 46°57' E 031°60'0 0.0
2014-Nov-07 11:32N 46°57' E 031°60'0 0.0
2014-Nov-07 10:32N 46°57' E 031°60'0 0.1
2014-Nov-07 09:32N 46°57' E 031°60'0 0.0
2014-Nov-07 08:32N 46°57' E 031°60'0 0.0
2014-Nov-07 07:32N 46°57' E 031°60'0 0.0
2014-Nov-07 06:32N 46°57' E 031°60'0 0.0
2014-Nov-07 05:32N 46°57' E 031°60'0 0.0
2014-Nov-07 04:32N 46°57' E 031°60'0 0.0
2014-Nov-07 03:32N 46°57' E 031°60'0 0.0
2014-Nov-07 02:29N 46°57' E 031°60'0 0.0
2014-Nov-07 01:32N 46°57' E 031°60'0 0.0
2014-Nov-07 00:32N 46°57' E 031°60'0 0.0
2014-Nov-06 23:32N 46°57' E 031°60'0 0.0
2014-Nov-06 22:32N 46°57' E 031°60'0 0.0
2014-Nov-06 21:32N 46°57' E 031°60'0 0.0
2014-Nov-06 20:32N 46°57' E 031°60'0 0.0
2014-Nov-06 19:32N 46°57' E 031°60'0 0.0
2014-Nov-06 18:32N 46°57' E 031°60'0 0.0
2014-Nov-06 17:32N 46°57' E 031°60'0 0.0
2014-Nov-06 16:29N 46°57' E 031°60'0 0.0
2014-Nov-06 15:32N 46°57' E 031°60'0 0.0
2014-Nov-06 14:32N 46°57' E 031°60'0 0.0
2014-Nov-06 13:32N 46°57' E 031°60'0 0.0
2014-Nov-06 12:32N 46°57' E 031°60'0 0.0
2014-Nov-06 11:32N 46°57' E 031°60'0 0.0
2014-Nov-06 10:32N 46°57' E 031°60'0 0.0
2014-Nov-06 09:32N 46°57' E 031°60'0 0.0
2014-Nov-06 08:32N 46°57' E 031°60'0 0.0
2014-Nov-06 07:32N 46°57' E 031°60'0 0.0
2014-Nov-06 06:32N 46°57' E 031°60'0 0.0
2014-Nov-06 05:32N 46°57' E 031°60'0 0.0
2014-Nov-06 04:32N 46°57' E 031°60'0 0.0
2014-Nov-06 03:32N 46°57' E 031°60'0 0.0
2014-Nov-06 02:32N 46°57' E 031°60'0 0.0
2014-Nov-06 01:32N 46°57' E 031°60'0 0.0
2014-Nov-06 00:31N 46°57' E 031°60'0 0.0
2014-Nov-05 23:31N 46°57' E 031°60'0 0.0
2014-Nov-05 22:31N 46°57' E 031°60'0 0.0
2014-Nov-05 21:31N 46°57' E 031°60'0 0.0
2014-Nov-05 20:31N 46°57' E 031°60'0 0.0
2014-Nov-05 19:31N 46°57' E 031°60'0 0.0
2014-Nov-05 18:31N 46°57' E 031°60'0 0.0
2014-Nov-05 17:28N 46°57' E 031°60'0 0.0
2014-Nov-05 16:31N 46°57' E 031°60'0 0.0
2014-Nov-05 15:31N 46°57' E 031°60'0 0.0
2014-Nov-05 14:31N 46°57' E 031°60'0 0.0
2014-Nov-05 13:31N 46°57' E 031°60'0 0.0
2014-Nov-05 12:31N 46°57' E 031°60'0 0.0
2014-Nov-05 11:31N 46°57' E 031°60'0 0.0
2014-Nov-05 10:31N 46°57' E 031°60'0 0.0
2014-Nov-05 09:31N 46°57' E 031°60'0 0.0
2014-Nov-05 08:31N 46°57' E 031°60'0 0.0
2014-Nov-05 07:31N 46°57' E 031°60'0 0.0
2014-Nov-05 06:31N 46°57' E 031°60'0 0.0
2014-Nov-05 05:31N 46°57' E 031°60'0 0.0
2014-Nov-05 04:31N 46°57' E 031°60'0 0.0
2014-Nov-05 03:31N 46°57' E 031°60'0 0.0
2014-Nov-05 02:31N 46°57' E 031°60'0 0.0
2014-Nov-05 01:31N 46°57' E 031°60'0 0.0
2014-Nov-05 00:31N 46°57' E 031°60'3 3.2
2014-Nov-04 23:33N 46°54' E 032°00'9 9.1
2014-Nov-04 22:33N 46°46' E 031°53'8 8.4
2014-Nov-04 21:33N 46°38' E 031°54'9 8.9
2014-Nov-04 20:33N 46°36' E 031°41'8 8.4
2014-Nov-04 19:33N 46°36' E 031°29'9 9.2
2014-Nov-04 18:33N 46°35' E 031°16'43 7.2
2014-Nov-04 12:33N 45°54' E 030°55'305 9.2
2014-Nov-03 03:28N 41°01' E 028°60'6 6.7
2014-Nov-03 02:33N 40°55' E 029°00'8 8.1
2014-Nov-03 01:33N 40°50' E 029°09'2 1.8
2014-Nov-03 00:28N 40°52' E 029°10'0 0.0
2014-Nov-02 23:22N 40°52' E 029°10'0 0.0
2014-Nov-02 22:28N 40°52' E 029°10'0 0.0
2014-Nov-02 21:28N 40°52' E 029°10'0 0.0
2014-Nov-02 20:28N 40°52' E 029°10'0 0.0
2014-Nov-02 19:16N 40°52' E 029°10'0 0.0
2014-Nov-02 18:28N 40°52' E 029°10'0 0.1
2014-Nov-02 17:33N 40°52' E 029°10'8 8.0
2014-Nov-02 16:33N 40°46' E 029°16'9 9.3
2014-Nov-02 15:33N 40°45' E 029°29'  

Dump ship's entire track history